Oak Grove, Wisconsin
Current Conditions -  °F | °C
As of 9:50 AM on Thursday 23 Oct 2014 (Local Time) from KSGS Reporting Station
Overcast Overcast  
Wind Chill: 53°   Ceiling: 600
Heat Index: 53°   Visibility: 10mi
Dew Point: 50°   Wind: 5mph
Humidity: 90%   Direction: 160°SSE
Pressure: 30"   Gusts: NA
Location:  44.7392°N, 92.6641°W
Report Text: KSGS 231450Z AUTO 16004KT 10SM BKN006 OVC011 12/10 A3000 RMK AO2 T01160100
Loading
Personal Weather Stations






























Interactive Weather Map
Tropical Storm Tracking
New forecast layout! Learn more

10-Day Weather Forecast

Advertisements
Track Severe Weather on mobile